sensor_id;sensor_type;location;lat;lon;timestamp;pressure;altitude;pressure_sealevel;temperature;humidity
36222;BME280;22266;52.340;4.962;2023-03-20T00:01:24;101892.59;;;9.56;73.29
36222;BME280;22266;52.340;4.962;2023-03-20T00:03:51;101888.25;;;9.55;73.64
36222;BME280;22266;52.340;4.962;2023-03-20T00:06:21;101888.25;;;9.55;73.37
36222;BME280;22266;52.340;4.962;2023-03-20T00:08:49;101885.56;;;9.55;73.50
36222;BME280;22266;52.340;4.962;2023-03-20T00:11:27;101873.66;;;9.57;73.87
36222;BME280;22266;52.340;4.962;2023-03-20T00:14:06;101877.84;;;9.60;73.64
36222;BME280;22266;52.340;4.962;2023-03-20T00:16:38;101871.63;;;9.59;73.40
36222;BME280;22266;52.340;4.962;2023-03-20T00:19:06;101874.16;;;9.61;73.03
36222;BME280;22266;52.340;4.962;2023-03-20T00:21:38;101878.53;;;9.62;73.44
36222;BME280;22266;52.340;4.962;2023-03-20T00:24:06;101863.56;;;9.59;73.08
36222;BME280;22266;52.340;4.962;2023-03-20T00:26:35;101872.31;;;9.61;73.12
36222;BME280;22266;52.340;4.962;2023-03-20T00:29:03;101876.84;;;9.61;73.22
36222;BME280;22266;52.340;4.962;2023-03-20T00:31:32;101888.59;;;9.60;72.94
36222;BME280;22266;52.340;4.962;2023-03-20T00:34:02;101894.63;;;9.54;72.84
36222;BME280;22266;52.340;4.962;2023-03-20T00:36:29;101903.19;;;9.49;73.04
36222;BME280;22266;52.340;4.962;2023-03-20T00:38:57;101902.16;;;9.50;73.59
36222;BME280;22266;52.340;4.962;2023-03-20T00:41:43;101912.75;;;9.52;73.23
36222;BME280;22266;52.340;4.962;2023-03-20T00:46:49;101920.78;;;9.44;72.77
36222;BME280;22266;52.340;4.962;2023-03-20T00:49:18;101914.41;;;9.45;73.20
36222;BME280;22266;52.340;4.962;2023-03-20T00:51:46;101908.88;;;9.46;73.24
36222;BME280;22266;52.340;4.962;2023-03-20T00:54:14;101895.25;;;9.48;72.92
36222;BME280;22266;52.340;4.962;2023-03-20T00:56:44;101884.50;;;9.48;72.76
36222;BME280;22266;52.340;4.962;2023-03-20T00:59:16;101903.19;;;9.49;72.99
36222;BME280;22266;52.340;4.962;2023-03-20T01:01:44;101915.09;;;9.47;72.67
36222;BME280;22266;52.340;4.962;2023-03-20T01:04:13;101918.47;;;9.49;72.64
36222;BME280;22266;52.340;4.962;2023-03-20T01:06:40;101910.41;;;9.49;72.91
36222;BME280;22266;52.340;4.962;2023-03-20T01:09:07;101903.19;;;9.49;72.71
36222;BME280;22266;52.340;4.962;2023-03-20T01:11:34;101909.56;;;9.48;72.40
36222;BME280;22266;52.340;4.962;2023-03-20T01:14:01;101909.56;;;9.48;72.64
36222;BME280;22266;52.340;4.962;2023-03-20T01:16:28;101915.41;;;9.44;72.77
36222;BME280;22266;52.340;4.962;2023-03-20T01:18:55;101908.84;;;9.38;72.34
36222;BME280;22266;52.340;4.962;2023-03-20T01:21:23;101915.34;;;9.35;72.45
36222;BME280;22266;52.340;4.962;2023-03-20T01:23:49;101923.59;;;9.34;72.26
36222;BME280;22266;52.340;4.962;2023-03-20T01:26:39;101916.38;;;9.34;72.31
36222;BME280;22266;52.340;4.962;2023-03-20T01:31:43;101907.63;;;9.32;72.74
36222;BME280;22266;52.340;4.962;2023-03-20T01:34:10;101911.69;;;9.36;72.71
36222;BME280;22266;52.340;4.962;2023-03-20T01:36:38;101918.75;;;9.37;72.49
36222;BME280;22266;52.340;4.962;2023-03-20T01:39:05;101921.44;;;9.37;72.70
36222;BME280;22266;52.340;4.962;2023-03-20T01:41:32;101924.44;;;9.34;72.63
36222;BME280;22266;52.340;4.962;2023-03-20T01:44:00;101921.38;;;9.29;73.17
36222;BME280;22266;52.340;4.962;2023-03-20T01:46:33;101920.03;;;9.25;73.23
36222;BME280;22266;52.340;4.962;2023-03-20T01:51:50;101916.97;;;9.20;73.75
36222;BME280;22266;52.340;4.962;2023-03-20T01:54:35;101915.13;;;9.21;73.50
36222;BME280;22266;52.340;4.962;2023-03-20T01:57:19;101915.25;;;9.19;73.53
36222;BME280;22266;52.340;4.962;2023-03-20T01:59:57;101903.53;;;9.20;74.04
36222;BME280;22266;52.340;4.962;2023-03-20T02:02:28;101895.44;;;9.12;73.43
36222;BME280;22266;52.340;4.962;2023-03-20T02:05:00;101883.47;;;9.06;73.88
36222;BME280;22266;52.340;4.962;2023-03-20T02:07:29;101889.00;;;9.05;73.66
36222;BME280;22266;52.340;4.962;2023-03-20T02:10:02;101898.56;;;9.07;73.74
36222;BME280;22266;52.340;4.962;2023-03-20T02:12:44;101888.53;;;9.09;73.31
36222;BME280;22266;52.340;4.962;2023-03-20T02:15:17;101886.69;;;9.10;73.87
36222;BME280;22266;52.340;4.962;2023-03-20T02:18:02;101889.53;;;9.08;73.68
36222;BME280;22266;52.340;4.962;2023-03-20T02:34:53;101862.72;;;8.90;72.87
36222;BME280;22266;52.340;4.962;2023-03-20T02:37:37;101855.00;;;8.87;73.19
36222;BME280;22266;52.340;4.962;2023-03-20T02:43:03;101829.31;;;8.85;73.54
36222;BME280;22266;52.340;4.962;2023-03-20T02:45:42;101823.63;;;8.88;73.28
36222;BME280;22266;52.340;4.962;2023-03-20T02:48:38;101830.84;;;8.87;73.15
36222;BME280;22266;52.340;4.962;2023-03-20T02:51:24;101833.00;;;8.84;73.32
36222;BME280;22266;52.340;4.962;2023-03-20T02:56:49;101832.16;;;8.83;73.53
36222;BME280;22266;52.340;4.962;2023-03-20T02:59:46;101835.50;;;8.85;73.10
36222;BME280;22266;52.340;4.962;2023-03-20T03:02:30;101836.22;;;8.87;73.62
36222;BME280;22266;52.340;4.962;2023-03-20T03:05:04;101839.88;;;8.86;73.17
36222;BME280;22266;52.340;4.962;2023-03-20T03:07:35;101839.34;;;8.83;73.43
36222;BME280;22266;52.340;4.962;2023-03-20T03:10:14;101839.34;;;8.83;73.17
36222;BME280;22266;52.340;4.962;2023-03-20T03:12:45;101841.34;;;8.81;72.96
36222;BME280;22266;52.340;4.962;2023-03-20T03:15:36;101836.00;;;8.81;73.35
36222;BME280;22266;52.340;4.962;2023-03-20T03:18:06;101823.88;;;8.77;73.65
36222;BME280;22266;52.340;4.962;2023-03-20T03:20:38;101825.56;;;8.78;73.66
36222;BME280;22266;52.340;4.962;2023-03-20T03:23:05;101824.91;;;8.76;73.10
36222;BME280;22266;52.340;4.962;2023-03-20T03:25:36;101822.50;;;8.73;73.17
36222;BME280;22266;52.340;4.962;2023-03-20T03:28:30;101810.09;;;8.72;73.32
36222;BME280;22266;52.340;4.962;2023-03-20T03:31:06;101805.25;;;8.75;73.29
36222;BME280;22266;52.340;4.962;2023-03-20T03:33:38;101810.47;;;8.77;73.86
36222;BME280;22266;52.340;4.962;2023-03-20T03:36:41;101805.94;;;8.77;73.73
36222;BME280;22266;52.340;4.962;2023-03-20T03:45:03;101797.53;;;8.72;73.92
36222;BME280;22266;52.340;4.962;2023-03-20T03:47:49;101784.22;;;8.71;73.42
36222;BME280;22266;52.340;4.962;2023-03-20T03:50:24;101789.94;;;8.68;74.06
36222;BME280;22266;52.340;4.962;2023-03-20T03:53:05;101795.31;;;8.68;73.97
36222;BME280;22266;52.340;4.962;2023-03-20T03:55:38;101786.44;;;8.67;74.07
36222;BME280;22266;52.340;4.962;2023-03-20T03:58:29;101787.94;;;8.70;73.61
36222;BME280;22266;52.340;4.962;2023-03-20T04:00:58;101776.34;;;8.69;73.46
36222;BME280;22266;52.340;4.962;2023-03-20T04:03:32;101784.72;;;8.66;73.69
36222;BME280;22266;52.340;4.962;2023-03-20T04:06:02;101790.44;;;8.63;73.55
36222;BME280;22266;52.340;4.962;2023-03-20T04:08:29;101787.03;;;8.61;73.66
36222;BME280;22266;52.340;4.962;2023-03-20T04:10:58;101789.56;;;8.62;73.26
36222;BME280;22266;52.340;4.962;2023-03-20T04:13:24;101798.47;;;8.63;73.32
36222;BME280;22266;52.340;4.962;2023-03-20T04:15:51;101792.09;;;8.64;73.95
36222;BME280;22266;52.340;4.962;2023-03-20T04:18:18;101785.97;;;8.54;73.71
36222;BME280;22266;52.340;4.962;2023-03-20T04:20:46;101792.00;;;8.48;74.17
36222;BME280;22266;52.340;4.962;2023-03-20T04:23:14;101794.81;;;8.46;73.68
36222;BME280;22266;52.340;4.962;2023-03-20T04:25:41;101786.75;;;8.46;73.96
36222;BME280;22266;52.340;4.962;2023-03-20T04:28:07;101781.94;;;8.50;73.65
36222;BME280;22266;52.340;4.962;2023-03-20T04:30:42;101784.63;;;8.50;73.44
36222;BME280;22266;52.340;4.962;2023-03-20T04:33:24;101797.66;;;8.45;73.71
36222;BME280;22266;52.340;4.962;2023-03-20T04:36:02;101800.00;;;8.39;73.94
36222;BME280;22266;52.340;4.962;2023-03-20T04:38:29;101797.44;;;8.38;74.23
36222;BME280;22266;52.340;4.962;2023-03-20T04:40:56;101788.91;;;8.42;73.87
36222;BME280;22266;52.340;4.962;2023-03-20T04:43:22;101795.28;;;8.41;73.92
36222;BME280;22266;52.340;4.962;2023-03-20T04:45:50;101778.03;;;8.44;74.11
36222;BME280;22266;52.340;4.962;2023-03-20T04:48:17;101780.19;;;8.40;74.11
36222;BME280;22266;52.340;4.962;2023-03-20T04:50:44;101770.91;;;8.35;74.02
36222;BME280;22266;52.340;4.962;2023-03-20T04:53:14;101767.38;;;8.34;73.93
36222;BME280;22266;52.340;4.962;2023-03-20T04:55:43;101765.03;;;8.31;73.97
36222;BME280;22266;52.340;4.962;2023-03-20T04:58:11;101774.44;;;8.35;74.24
36222;BME280;22266;52.340;4.962;2023-03-20T05:00:39;101769.91;;;8.36;74.22
36222;BME280;22266;52.340;4.962;2023-03-20T05:03:05;101769.38;;;8.32;74.50
36222;BME280;22266;52.340;4.962;2023-03-20T05:05:32;101758.34;;;8.35;73.80
36222;BME280;22266;52.340;4.962;2023-03-20T05:08:04;101757.94;;;8.30;73.95
36222;BME280;22266;52.340;4.962;2023-03-20T05:10:34;101759.97;;;8.28;74.21
36222;BME280;22266;52.340;4.962;2023-03-20T05:13:07;101758.81;;;8.31;73.86
36222;BME280;22266;52.340;4.962;2023-03-20T05:15:48;101762.00;;;8.34;74.11
36222;BME280;22266;52.340;4.962;2023-03-20T05:18:35;101759.31;;;8.34;74.31
36222;BME280;22266;52.340;4.962;2023-03-20T05:21:32;101760.13;;;8.27;73.90
36222;BME280;22266;52.340;4.962;2023-03-20T05:23:58;101764.78;;;8.25;74.39
36222;BME280;22266;52.340;4.962;2023-03-20T05:26:43;101769.31;;;8.24;74.45
36222;BME280;22266;52.340;4.962;2023-03-20T05:29:44;101764.72;;;8.16;74.57
36222;BME280;22266;52.340;4.962;2023-03-20T05:32:14;101768.56;;;8.14;74.20
36222;BME280;22266;52.340;4.962;2023-03-20T05:35:13;101766.41;;;8.17;74.47
36222;BME280;22266;52.340;4.962;2023-03-20T05:37:45;101759.19;;;8.18;74.83
36222;BME280;22266;52.340;4.962;2023-03-20T05:40:24;101766.22;;;8.11;74.70
36222;BME280;22266;52.340;4.962;2023-03-20T05:43:00;101767.50;;;8.07;75.13
36222;BME280;22266;52.340;4.962;2023-03-20T05:45:27;101769.19;;;8.08;74.66
36222;BME280;22266;52.340;4.962;2023-03-20T05:48:25;101764.50;;;8.10;74.73
36222;BME280;22266;52.340;4.962;2023-03-20T05:51:07;101771.09;;;8.15;74.78
36222;BME280;22266;52.340;4.962;2023-03-20T05:54:12;101768.13;;;8.18;74.69
36222;BME280;22266;52.340;4.962;2023-03-20T05:57:04;101762.59;;;8.20;74.68
36222;BME280;22266;52.340;4.962;2023-03-20T05:59:51;101767.94;;;8.20;74.30
36222;BME280;22266;52.340;4.962;2023-03-20T06:02:36;101765.03;;;8.13;74.55
36222;BME280;22266;52.340;4.962;2023-03-20T06:05:16;101769.25;;;8.16;74.35
36222;BME280;22266;52.340;4.962;2023-03-20T06:07:48;101772.59;;;8.18;74.46
36222;BME280;22266;52.340;4.962;2023-03-20T06:10:15;101775.16;;;8.20;74.50
36222;BME280;22266;52.340;4.962;2023-03-20T06:12:42;101780.81;;;8.16;74.64
36222;BME280;22266;52.340;4.962;2023-03-20T06:15:09;101783.66;;;8.15;74.74
36222;BME280;22266;52.340;4.962;2023-03-20T06:17:40;101778.69;;;8.20;74.60
36222;BME280;22266;52.340;4.962;2023-03-20T06:20:07;101784.72;;;8.22;75.03
36222;BME280;22266;52.340;4.962;2023-03-20T06:22:35;101782.66;;;8.16;74.73
36222;BME280;22266;52.340;4.962;2023-03-20T06:25:01;101780.81;;;8.16;74.40
36222;BME280;22266;52.340;4.962;2023-03-20T06:27:36;101778.44;;;8.13;75.49
36222;BME280;22266;52.340;4.962;2023-03-20T06:30:03;101780.81;;;8.16;75.13
36222;BME280;22266;52.340;4.962;2023-03-20T06:32:33;101786.72;;;8.20;75.48
36222;BME280;22266;52.340;4.962;2023-03-20T06:35:02;101780.22;;;8.23;74.80
36222;BME280;22266;52.340;4.962;2023-03-20T06:37:31;101779.97;;;8.16;74.79
36222;BME280;22266;52.340;4.962;2023-03-20T06:40:04;101784.66;;;8.14;75.31
36222;BME280;22266;52.340;4.962;2023-03-20T06:42:31;101780.81;;;8.16;75.33
36222;BME280;22266;52.340;4.962;2023-03-20T06:44:59;101786.34;;;8.15;75.20
36222;BME280;22266;52.340;4.962;2023-03-20T06:47:37;101781.13;;;8.13;75.20
36222;BME280;22266;52.340;4.962;2023-03-20T06:50:05;101779.63;;;8.11;75.67
36222;BME280;22266;52.340;4.962;2023-03-20T06:52:35;101787.66;;;8.11;75.58
36222;BME280;22266;52.340;4.962;2023-03-20T06:55:35;101771.22;;;8.14;75.80
36222;BME280;22266;52.340;4.962;2023-03-20T06:58:02;101783.66;;;8.15;75.53
36222;BME280;22266;52.340;4.962;2023-03-20T07:00:30;101784.81;;;8.12;75.63
36222;BME280;22266;52.340;4.962;2023-03-20T07:03:00;101789.03;;;8.15;75.47
36222;BME280;22266;52.340;4.962;2023-03-20T07:05:28;101787.56;;;8.21;75.05
36222;BME280;22266;52.340;4.962;2023-03-20T07:07:56;101787.19;;;8.15;75.70
36222;BME280;22266;52.340;4.962;2023-03-20T07:10:22;101799.38;;;8.10;75.93
36222;BME280;22266;52.340;4.962;2023-03-20T07:12:51;101804.41;;;8.13;76.07
36222;BME280;22266;52.340;4.962;2023-03-20T07:15:18;101806.56;;;8.09;75.85
36222;BME280;22266;52.340;4.962;2023-03-20T07:17:45;101803.41;;;8.14;76.29
36222;BME280;22266;52.340;4.962;2023-03-20T07:20:13;101803.81;;;8.19;76.22
36222;BME280;22266;52.340;4.962;2023-03-20T07:22:40;101803.94;;;8.17;76.01
36222;BME280;22266;52.340;4.962;2023-03-20T07:25:24;101799.44;;;8.18;76.26
36222;BME280;22266;52.340;4.962;2023-03-20T07:28:07;101803.28;;;8.15;75.91
36222;BME280;22266;52.340;4.962;2023-03-20T07:30:36;101805.13;;;8.15;75.61
36222;BME280;22266;52.340;4.962;2023-03-20T07:33:04;101801.75;;;8.13;76.02
36222;BME280;22266;52.340;4.962;2023-03-20T07:35:32;101806.56;;;8.09;75.63
36222;BME280;22266;52.340;4.962;2023-03-20T07:37:59;101806.03;;;8.06;76.13
36222;BME280;22266;52.340;4.962;2023-03-20T07:40:26;101811.94;;;8.09;76.44
36222;BME280;22266;52.340;4.962;2023-03-20T07:42:55;101812.00;;;8.17;76.12
36222;BME280;22266;52.340;4.962;2023-03-20T07:45:40;101812.78;;;8.10;76.20
36222;BME280;22266;52.340;4.962;2023-03-20T07:48:07;101803.13;;;8.17;77.09
36222;BME280;22266;52.340;4.962;2023-03-20T07:50:33;101805.19;;;8.23;76.51
36222;BME280;22266;52.340;4.962;2023-03-20T07:53:00;101807.81;;;8.15;76.29
36222;BME280;22266;52.340;4.962;2023-03-20T07:55:27;101806.81;;;8.16;75.76
36222;BME280;22266;52.340;4.962;2023-03-20T07:57:53;101805.97;;;8.15;75.70
36222;BME280;22266;52.340;4.962;2023-03-20T08:00:19;101809.66;;;8.14;76.02
36222;BME280;22266;52.340;4.962;2023-03-20T08:02:46;101807.47;;;8.18;76.17
36222;BME280;22266;52.340;4.962;2023-03-20T08:05:13;101808.53;;;8.25;75.83
36222;BME280;22266;52.340;4.962;2023-03-20T08:07:39;101809.09;;;8.29;75.80
36222;BME280;22266;52.340;4.962;2023-03-20T08:10:06;101813.44;;;8.30;75.50
36222;BME280;22266;52.340;4.962;2023-03-20T08:12:33;101814.16;;;8.32;75.52
36222;BME280;22266;52.340;4.962;2023-03-20T08:15:00;101810.75;;;8.30;75.90
36222;BME280;22266;52.340;4.962;2023-03-20T08:17:26;101814.97;;;8.32;76.40
36222;BME280;22266;52.340;4.962;2023-03-20T08:19:53;101819.50;;;8.32;76.15
36222;BME280;22266;52.340;4.962;2023-03-20T08:22:19;101812.00;;;8.35;76.07
36222;BME280;22266;52.340;4.962;2023-03-20T08:24:46;101820.19;;;8.34;75.82
36222;BME280;22266;52.340;4.962;2023-03-20T08:27:12;101819.22;;;8.35;76.12
36222;BME280;22266;52.340;4.962;2023-03-20T08:29:39;101817.97;;;8.29;76.23
36222;BME280;22266;52.340;4.962;2023-03-20T08:32:05;101812.78;;;8.28;76.75
36222;BME280;22266;52.340;4.962;2023-03-20T08:34:32;101816.00;;;8.31;77.37
36222;BME280;22266;52.340;4.962;2023-03-20T08:36:59;101813.97;;;8.33;77.26
36222;BME280;22266;52.340;4.962;2023-03-20T08:39:27;101813.31;;;8.31;77.75
36222;BME280;22266;52.340;4.962;2023-03-20T08:41:54;101811.47;;;8.32;77.68
36222;BME280;22266;52.340;4.962;2023-03-20T08:44:20;101820.19;;;8.34;77.97
36222;BME280;22266;52.340;4.962;2023-03-20T08:46:46;101810.56;;;8.41;78.07
36222;BME280;22266;52.340;4.962;2023-03-20T08:49:13;101814.69;;;8.35;77.89
36222;BME280;22266;52.340;4.962;2023-03-20T08:51:39;101811.47;;;8.32;79.05
36222;BME280;22266;52.340;4.962;2023-03-20T08:54:06;101806.63;;;8.35;78.89
36222;BME280;22266;52.340;4.962;2023-03-20T08:56:32;101812.56;;;8.39;78.49
36222;BME280;22266;52.340;4.962;2023-03-20T08:58:59;101810.25;;;8.44;79.26
36222;BME280;22266;52.340;4.962;2023-03-20T09:01:25;101807.25;;;8.47;78.94
36222;BME280;22266;52.340;4.962;2023-03-20T09:04:07;101803.69;;;8.47;78.86
36222;BME280;22266;52.340;4.962;2023-03-20T09:06:35;101804.94;;;8.52;78.96
36222;BME280;22266;52.340;4.962;2023-03-20T09:09:02;101798.91;;;8.58;78.80
36222;BME280;22266;52.340;4.962;2023-03-20T09:11:29;101804.16;;;8.60;78.62
36222;BME280;22266;52.340;4.962;2023-03-20T09:13:56;101808.22;;;8.64;79.00
36222;BME280;22266;52.340;4.962;2023-03-20T09:16:23;101807.69;;;8.60;79.21
36222;BME280;22266;52.340;4.962;2023-03-20T09:18:49;101798.47;;;8.63;79.34
36222;BME280;22266;52.340;4.962;2023-03-20T09:21:16;101796.25;;;8.58;79.04
36222;BME280;22266;52.340;4.962;2023-03-20T09:23:42;101791.22;;;8.55;79.21
36222;BME280;22266;52.340;4.962;2023-03-20T09:26:09;101795.03;;;8.53;79.54
36222;BME280;22266;52.340;4.962;2023-03-20T09:28:36;101782.38;;;8.63;79.90
36222;BME280;22266;52.340;4.962;2023-03-20T09:31:02;101800.16;;;8.64;79.70
36222;BME280;22266;52.340;4.962;2023-03-20T09:33:29;101793.09;;;8.63;79.72
36222;BME280;22266;52.340;4.962;2023-03-20T09:35:55;101789.56;;;8.62;79.66
36222;BME280;22266;52.340;4.962;2023-03-20T09:38:22;101788.41;;;8.65;79.85
36222;BME280;22266;52.340;4.962;2023-03-20T09:40:52;101803.69;;;8.64;79.96
36222;BME280;22266;52.340;4.962;2023-03-20T09:46:30;101792.47;;;8.69;79.84
36222;BME280;22266;52.340;4.962;2023-03-20T09:49:20;101799.03;;;8.75;80.08
36222;BME280;22266;52.340;4.962;2023-03-20T09:51:54;101803.41;;;8.76;80.32
36222;BME280;22266;52.340;4.962;2023-03-20T09:54:40;101796.50;;;8.73;80.59
36222;BME280;22266;52.340;4.962;2023-03-20T09:57:25;101804.56;;;8.73;80.42
36222;BME280;22266;52.340;4.962;2023-03-20T09:59:56;101797.22;;;8.75;80.54
36222;BME280;22266;52.340;4.962;2023-03-20T10:02:35;101802.72;;;8.74;80.92
36222;BME280;22266;52.340;4.962;2023-03-20T10:05:13;101804.09;;;8.78;81.32
36222;BME280;22266;52.340;4.962;2023-03-20T10:07:42;101795.66;;;8.73;80.54
36222;BME280;22266;52.340;4.962;2023-03-20T10:10:13;101791.50;;;8.78;80.86
36222;BME280;22266;52.340;4.962;2023-03-20T10:12:47;101800.03;;;8.74;80.71
36222;BME280;22266;52.340;4.962;2023-03-20T10:15:45;101797.31;;;8.65;80.97
36222;BME280;22266;52.340;4.962;2023-03-20T10:18:23;101794.25;;;8.60;81.53
36222;BME280;22266;52.340;4.962;2023-03-20T10:20:58;101797.59;;;8.62;81.64
36222;BME280;22266;52.340;4.962;2023-03-20T10:23:39;101795.78;;;8.63;81.36
36222;BME280;22266;52.340;4.962;2023-03-20T10:26:14;101790.56;;;8.61;81.36
36222;BME280;22266;52.340;4.962;2023-03-20T10:31:31;101787.75;;;8.63;81.91
36222;BME280;22266;52.340;4.962;2023-03-20T10:40:35;101777.31;;;8.60;81.18
36222;BME280;22266;52.340;4.962;2023-03-20T10:42:39;101779.00;;;8.61;81.80
36222;BME280;22266;52.340;4.962;2023-03-20T10:45:17;101788.09;;;8.68;82.48
36222;BME280;22266;52.340;4.962;2023-03-20T10:47:49;101786.09;;;8.70;81.46
36222;BME280;22266;52.340;4.962;2023-03-20T10:50:20;101787.09;;;8.69;82.08
36222;BME280;22266;52.340;4.962;2023-03-20T10:52:50;101779.34;;;8.66;82.09
36222;BME280;22266;52.340;4.962;2023-03-20T10:55:28;101775.81;;;8.65;82.25
36222;BME280;22266;52.340;4.962;2023-03-20T10:58:15;101775.81;;;8.65;82.46
36222;BME280;22266;52.340;4.962;2023-03-20T11:00:44;101778.69;;;8.64;82.29
36222;BME280;22266;52.340;4.962;2023-03-20T11:03:21;101775.03;;;8.73;83.02
36222;BME280;22266;52.340;4.962;2023-03-20T11:05:52;101769.63;;;8.65;82.86
36222;BME280;22266;52.340;4.962;2023-03-20T11:08:38;101783.00;;;8.57;82.73
36222;BME280;22266;52.340;4.962;2023-03-20T11:11:05;101773.94;;;8.58;83.18
36222;BME280;22266;52.340;4.962;2023-03-20T11:13:34;101773.31;;;8.64;83.50
36222;BME280;22266;52.340;4.962;2023-03-20T11:16:20;101770.69;;;8.72;83.66
36222;BME280;22266;52.340;4.962;2023-03-20T11:18:48;101778.41;;;8.75;83.87
36222;BME280;22266;52.340;4.962;2023-03-20T11:21:18;101774.19;;;8.73;83.41
36222;BME280;22266;52.340;4.962;2023-03-20T11:23:46;101778.38;;;8.67;83.32
36222;BME280;22266;52.340;4.962;2023-03-20T11:26:14;101767.63;;;8.67;84.17
36222;BME280;22266;52.340;4.962;2023-03-20T11:28:54;101771.81;;;8.70;83.96
36222;BME280;22266;52.340;4.962;2023-03-20T11:31:34;101767.28;;;8.70;84.18
36222;BME280;22266;52.340;4.962;2023-03-20T11:34:21;101771.81;;;8.70;84.00
36222;BME280;22266;52.340;4.962;2023-03-20T11:36:56;101759.47;;;8.77;84.22
36222;BME280;22266;52.340;4.962;2023-03-20T11:39:35;101765.66;;;8.77;84.69
36222;BME280;22266;52.340;4.962;2023-03-20T11:42:03;101752.25;;;8.77;84.38
36222;BME280;22266;52.340;4.962;2023-03-20T11:44:33;101757.91;;;8.74;84.44
36222;BME280;22266;52.340;4.962;2023-03-20T11:47:05;101757.59;;;8.77;85.12
36222;BME280;22266;52.340;4.962;2023-03-20T11:49:49;101761.66;;;8.81;84.58
36222;BME280;22266;52.340;4.962;2023-03-20T11:52:21;101764.03;;;8.84;84.42
36222;BME280;22266;52.340;4.962;2023-03-20T11:54:56;101754.66;;;8.88;84.55
36222;BME280;22266;52.340;4.962;2023-03-20T12:00:05;101750.44;;;8.86;84.82
36222;BME280;22266;52.340;4.962;2023-03-20T12:02:34;101749.47;;;8.95;84.68
36222;BME280;22266;52.340;4.962;2023-03-20T12:05:32;101745.44;;;8.99;84.90
36222;BME280;22266;52.340;4.962;2023-03-20T12:08:14;101752.00;;;8.97;84.60
36222;BME280;22266;52.340;4.962;2023-03-20T12:10:52;101749.66;;;9.02;84.59
36222;BME280;22266;52.340;4.962;2023-03-20T12:13:24;101743.78;;;8.98;85.16
36222;BME280;22266;52.340;4.962;2023-03-20T12:15:58;101750.81;;;8.99;85.20
36222;BME280;22266;52.340;4.962;2023-03-20T12:18:40;101742.09;;;8.97;84.83
36222;BME280;22266;52.340;4.962;2023-03-20T12:21:29;101745.09;;;8.94;84.54
36222;BME280;22266;52.340;4.962;2023-03-20T12:24:03;101737.34;;;8.91;85.59
36222;BME280;22266;52.340;4.962;2023-03-20T12:29:50;101739.88;;;8.84;85.90
36222;BME280;22266;52.340;4.962;2023-03-20T12:33:23;101735.69;;;8.90;86.08
36222;BME280;22266;52.340;4.962;2023-03-20T12:35:30;101745.59;;;8.89;86.24
36222;BME280;22266;52.340;4.962;2023-03-20T12:37:57;101730.84;;;8.94;85.87
36222;BME280;22266;52.340;4.962;2023-03-20T12:40:34;101734.84;;;8.89;85.97
36222;BME280;22266;52.340;4.962;2023-03-20T12:43:13;101728.47;;;8.90;85.75
36222;BME280;22266;52.340;4.962;2023-03-20T12:45:52;101723.25;;;8.89;85.99
36222;BME280;22266;52.340;4.962;2023-03-20T12:48:42;101727.66;;;8.98;86.12
36222;BME280;22266;52.340;4.962;2023-03-20T12:51:24;101729.34;;;8.99;85.61
36222;BME280;22266;52.340;4.962;2023-03-20T12:54:22;101721.25;;;8.91;85.68
36222;BME280;22266;52.340;4.962;2023-03-20T12:57:09;101721.59;;;8.88;86.42
36222;BME280;22266;52.340;4.962;2023-03-20T13:00:03;101719.59;;;8.98;86.27
36222;BME280;22266;52.340;4.962;2023-03-20T13:02:55;101718.28;;;9.02;85.81
36222;BME280;22266;52.340;4.962;2023-03-20T13:05:40;101727.53;;;9.08;85.94
36222;BME280;22266;52.340;4.962;2023-03-20T13:08:37;101719.81;;;9.05;85.47
36222;BME280;22266;52.340;4.962;2023-03-20T13:11:30;101719.94;;;9.03;85.75
36222;BME280;22266;52.340;4.962;2023-03-20T13:14:07;101715.44;;;9.04;86.11
36222;BME280;22266;52.340;4.962;2023-03-20T13:16:46;101710.41;;;9.09;86.06
36222;BME280;22266;52.340;4.962;2023-03-20T13:19:34;101699.69;;;9.17;86.63
36222;BME280;22266;52.340;4.962;2023-03-20T13:22:14;101702.88;;;9.12;85.67
36222;BME280;22266;52.340;4.962;2023-03-20T13:24:48;101692.66;;;9.16;86.29
36222;BME280;22266;52.340;4.962;2023-03-20T13:30:30;101695.34;;;9.16;85.96
36222;BME280;22266;52.340;4.962;2023-03-20T13:36:15;101693.31;;;9.18;86.40
36222;BME280;22266;52.340;4.962;2023-03-20T13:38:48;101693.50;;;9.16;86.55
36222;BME280;22266;52.340;4.962;2023-03-20T13:41:17;101684.25;;;9.19;86.42
36222;BME280;22266;52.340;4.962;2023-03-20T13:43:52;101686.09;;;9.27;86.14
36222;BME280;22266;52.340;4.962;2023-03-20T13:46:46;101688.47;;;9.30;86.02
36222;BME280;22266;52.340;4.962;2023-03-20T13:52:15;101680.06;;;9.25;85.99
36222;BME280;22266;52.340;4.962;2023-03-20T13:54:51;101676.88;;;9.21;86.61
36222;BME280;22266;52.340;4.962;2023-03-20T14:00:42;101675.84;;;9.22;86.77
36222;BME280;22266;52.340;4.962;2023-03-20T14:03:26;101683.91;;;9.22;86.52
36222;BME280;22266;52.340;4.962;2023-03-20T14:05:54;101677.88;;;9.20;86.68
36222;BME280;22266;52.340;4.962;2023-03-20T14:10:55;101684.94;;;9.21;86.73
36222;BME280;22266;52.340;4.962;2023-03-20T14:13:31;101681.22;;;9.22;86.96
36222;BME280;22266;52.340;4.962;2023-03-20T14:16:00;101674.19;;;9.21;86.64
36222;BME280;22266;52.340;4.962;2023-03-20T14:18:29;101673.34;;;9.21;87.03
36222;BME280;22266;52.340;4.962;2023-03-20T14:20:58;101677.22;;;9.26;87.36
36222;BME280;22266;52.340;4.962;2023-03-20T14:23:33;101682.09;;;9.31;87.28
36222;BME280;22266;52.340;4.962;2023-03-20T14:26:05;101678.75;;;9.29;87.64
36222;BME280;22266;52.340;4.962;2023-03-20T14:28:52;101672.34;;;9.30;87.66
36222;BME280;22266;52.340;4.962;2023-03-20T14:31:26;101673.19;;;9.30;87.32
36222;BME280;22266;52.340;4.962;2023-03-20T14:45:01;101659.25;;;9.35;87.72
36222;BME280;22266;52.340;4.962;2023-03-20T14:57:50;101654.72;;;9.44;87.42
36222;BME280;22266;52.340;4.962;2023-03-20T15:00:26;101653.88;;;9.43;87.28
36222;BME280;22266;52.340;4.962;2023-03-20T15:05:31;101653.06;;;9.43;87.44